18 Jul 2018 00:51 UTC 2018199+00:51 UTC

Overview Datums Bench Marks Data Query Site Visit Daily QC Messages Attributes

043: Nueces Delta 3

27° 53' 1" N   97° 31' 59" W
NUDE3
The Coastal Bend Bays & Estuaries Program Coastal Bend Bays and Estuaries Program

Station Information

Nueces Delta 3
Nueces Delta 3
more pictures
 
Station Name:Nueces Delta 3
DNR ID:043
Location:27° 53' 1" N, 97° 31' 59" W

Water Level Forecasts

Latest Observations

Series Metric English Marine Observed at
Water Temperature 32.7 °C 90.9 °F 90.9 °F Jul 17 19:42 CDT
00h07m ago
Salinity 21.200 psu 21.200 psu 21.200 psu Jul 17 19:42 CDT
00h07m ago

Maps

Nueces Delta 3
All Stations in Area
Entire Network
 

Recent Observations

Date/Time Water
Temp (°F)
Sal (psu)
Jul 17 19:00 CDT 91.2 21.200
Jul 17 18:00 CDT 91.9 21.100
Jul 17 17:00 CDT 91.4 21.000
Jul 17 16:00 CDT 89.8 19.700
Jul 17 15:00 CDT 89.4 18.500
Jul 17 14:00 CDT 90.3 18.100
Jul 17 13:00 CDT 88.3 18.100
Jul 17 12:00 CDT 86.4 18.700
Jul 17 11:00 CDT 84.0 19.500
Jul 17 10:00 CDT 82.4 20.100
Jul 17 09:00 CDT 81.3 20.400
Jul 17 08:00 CDT 81.0 20.700
Jul 17 07:00 CDT 81.3 20.800
Jul 17 06:00 CDT 81.7 20.800
Jul 17 05:00 CDT 82.0 20.800
Jul 17 04:00 CDT 82.2 20.800
Jul 17 03:00 CDT 82.2 20.500
Jul 17 02:00 CDT 85.3 21.200
Jul 17 01:00 CDT 85.5 21.200
Jul 17 00:00 CDT 85.8 21.200
Jul 16 23:00 CDT 86.2 21.200
Jul 16 22:00 CDT 87.3 21.200
Jul 16 21:00 CDT 88.5 21.200
Jul 16 20:00 CDT 89.4 21.100
Jul 16 19:00 CDT 90.1 20.900

Historical Data Availability